Time;durP1;ratioP1;P1;durP2;ratioP2;P2;SDS_P1;SDS_P2;PMS_P1;PMS_P2;Temp;Humidity;BMP_temperature;BMP_pressure;BME280_temperature;BME280_humidity;BME280_pressure;Samples;Min_cycle;Max_cycle;Signal;HPM_P1;HPM_P2
2021/01/12 00:01:11;;;;;;;43.15;19.38;;;;;;;5.65;100.00;100552.25;4982540;28;20038;-68
2021/01/12 00:03:37;;;;;;;40.65;19.85;;;;;;;5.67;100.00;100545.06;4985352;28;20026;-71
2021/01/12 00:06:02;;;;;;;42.05;18.85;;;;;;;5.69;100.00;100539.63;4985495;28;20452;-70
2021/01/12 00:08:28;;;;;;;43.92;19.80;;;;;;;5.67;100.00;100542.41;4984828;28;20026;-70
2021/01/12 00:10:53;;;;;;;41.20;19.83;;;;;;;5.64;100.00;100537.19;4986080;28;20129;-70
2021/01/12 00:13:19;;;;;;;37.38;19.80;;;;;;;5.73;100.00;100537.72;4985342;28;20038;-70
2021/01/12 00:15:44;;;;;;;42.30;20.88;;;;;;;5.63;100.00;100538.13;4984951;28;20491;-69
2021/01/12 00:18:10;;;;;;;39.70;19.55;;;;;;;5.69;100.00;100526.31;4984519;28;20038;-70
2021/01/12 00:20:35;;;;;;;38.05;18.67;;;;;;;5.66;100.00;100524.69;4986950;28;20038;-70
2021/01/12 00:23:01;;;;;;;40.08;19.60;;;;;;;5.67;100.00;100513.09;4986852;28;20034;-69
2021/01/12 00:25:27;;;;;;;40.85;18.48;;;;;;;5.68;100.00;100511.28;4987164;28;20027;-70
2021/01/12 00:27:53;;;;;;;36.50;18.33;;;;;;;5.67;100.00;100499.78;4981325;28;20410;-71
2021/01/12 00:30:19;;;;;;;37.88;18.48;;;;;;;5.68;100.00;100504.16;4984786;28;20027;-70
2021/01/12 00:32:44;;;;;;;36.30;18.77;;;;;;;5.69;100.00;100484.59;4986423;28;20505;-71
2021/01/12 00:35:10;;;;;;;40.10;20.00;;;;;;;5.64;100.00;100488.41;4983671;28;20069;-70
2021/01/12 00:37:35;;;;;;;40.00;19.75;;;;;;;5.65;100.00;100488.34;4988684;28;20128;-69
2021/01/12 00:40:01;;;;;;;42.67;20.75;;;;;;;5.73;100.00;100479.13;4991632;28;20061;-70
2021/01/12 00:42:27;;;;;;;38.40;20.38;;;;;;;5.68;100.00;100471.34;4990237;28;20042;-70
2021/01/12 00:44:53;;;;;;;33.97;18.45;;;;;;;5.69;100.00;100467.75;4989781;28;20045;-70
2021/01/12 00:47:23;;;;;;;40.70;19.80;;;;;;;5.72;100.00;100466.75;4988813;28;20613;-70
2021/01/12 00:49:49;;;;;;;37.78;18.33;;;;;;;5.74;100.00;100462.22;4990379;28;20038;-70
2021/01/12 00:52:14;;;;;;;39.42;20.02;;;;;;;5.65;100.00;100459.06;4990357;28;20037;-70
2021/01/12 00:54:39;;;;;;;34.17;19.35;;;;;;;5.68;100.00;100458.03;4988458;28;20088;-70
2021/01/12 00:57:05;;;;;;;38.75;20.00;;;;;;;5.67;100.00;100443.88;4988527;28;20034;-70
2021/01/12 00:59:30;;;;;;;38.20;18.30;;;;;;;5.65;100.00;100451.06;4988543;28;20066;-68
2021/01/12 01:02:01;;;;;;;39.83;19.20;;;;;;;5.69;100.00;100441.13;4991161;28;20384;-70
2021/01/12 01:04:28;;;;;;;42.55;19.60;;;;;;;5.76;100.00;100436.34;4986497;28;20026;-70
2021/01/12 01:06:54;;;;;;;39.65;19.75;;;;;;;5.70;100.00;100442.84;4988244;28;20364;-70
2021/01/12 01:09:20;;;;;;;35.63;18.83;;;;;;;5.74;100.00;100438.25;4971351;28;20126;-70
2021/01/12 01:11:47;;;;;;;34.50;17.73;;;;;;;5.70;100.00;100427.72;4991945;28;20494;-70
2021/01/12 01:14:13;;;;;;;33.85;18.15;;;;;;;5.70;100.00;100422.41;4989690;28;20026;-71
2021/01/12 01:16:39;;;;;;;34.80;18.48;;;;;;;5.67;100.00;100417.25;4988650;28;20066;-70
2021/01/12 01:19:05;;;;;;;33.25;17.50;;;;;;;5.65;100.00;100413.78;4991202;28;20038;-72
2021/01/12 01:21:31;;;;;;;32.85;17.58;;;;;;;5.72;100.00;100406.38;4989672;28;20394;-71
2021/01/12 01:23:56;;;;;;;31.55;16.98;;;;;;;5.70;100.00;100406.44;4990617;28;20030;-70
2021/01/12 01:26:22;;;;;;;34.55;17.13;;;;;;;5.72;100.00;100405.50;4988735;28;20045;-70
2021/01/12 01:28:48;;;;;;;30.00;16.90;;;;;;;5.67;100.00;100400.41;4991087;28;20121;-70
2021/01/12 01:31:14;;;;;;;29.13;15.73;;;;;;;5.74;100.00;100395.66;4989333;28;20530;-69
2021/01/12 01:33:39;;;;;;;30.40;16.73;;;;;;;5.76;100.00;100393.75;4990426;28;20038;-70
2021/01/12 01:36:08;;;;;;;30.73;16.08;;;;;;;5.72;100.00;100386.84;4988137;28;20723;-70
2021/01/12 01:38:33;;;;;;;32.78;16.20;;;;;;;5.66;100.00;100378.25;4990054;28;20117;-71
2021/01/12 01:41:00;;;;;;;38.05;17.38;;;;;;;5.75;100.00;100382.22;4989862;28;20161;-71
2021/01/12 01:43:26;;;;;;;27.00;15.90;;;;;;;5.78;100.00;100381.22;4988828;28;20046;-70
2021/01/12 01:45:52;;;;;;;27.23;15.77;;;;;;;5.76;100.00;100383.09;4990296;28;20046;-70
2021/01/12 01:48:19;;;;;;;32.25;17.50;;;;;;;5.77;100.00;100379.50;4988304;28;20483;-70
2021/01/12 01:50:45;;;;;;;29.25;15.50;;;;;;;5.76;100.00;100365.31;4986402;28;20038;-71
2021/01/12 01:53:10;;;;;;;30.92;16.33;;;;;;;5.74;100.00;100363.69;4990123;28;20069;-70
2021/01/12 01:55:37;;;;;;;29.20;16.30;;;;;;;5.76;100.00;100361.78;4982887;28;20035;-70
2021/01/12 01:58:04;;;;;;;30.70;16.52;;;;;;;5.77;100.00;100359.06;4989736;28;20042;-70
2021/01/12 02:00:30;;;;;;;35.47;16.20;;;;;;;5.82;100.00;100345.50;4988788;28;20029;-71
2021/01/12 02:03:20;;;;;;;27.50;15.45;;;;;;;5.77;100.00;100358.19;4989368;28;20046;-70
2021/01/12 02:05:56;;;;;;;28.80;15.88;;;;;;;5.78;100.00;100334.16;4988824;28;20033;-70
2021/01/12 02:08:33;;;;;;;28.75;14.82;;;;;;;5.73;100.00;100345.97;4989014;28;20054;-68
2021/01/12 02:11:00;;;;;;;27.45;14.68;;;;;;;5.68;100.00;100339.06;4982535;28;20379;-71
2021/01/12 02:13:30;;;;;;;27.45;15.23;;;;;;;5.77;100.00;100339.56;4989585;28;20129;-71
2021/01/12 02:15:59;;;;;;;29.92;15.00;;;;;;;5.79;100.00;100335.03;4977669;28;20046;-70
2021/01/12 02:18:25;;;;;;;29.50;15.95;;;;;;;5.80;100.00;100336.75;4987027;28;20101;-70
2021/01/12 02:20:51;;;;;;;24.40;14.48;;;;;;;5.80;100.00;100320.78;4988787;28;20041;-70
2021/01/12 02:23:20;;;;;;;24.13;13.68;;;;;;;5.78;100.00;100318.19;4989534;28;20053;-70
2021/01/12 02:25:47;;;;;;;25.27;13.75;;;;;;;5.70;100.00;100321.22;4987008;28;20065;-69
2021/01/12 02:28:17;;;;;;;23.52;12.75;;;;;;;5.85;100.00;100305.41;4987672;28;20045;-70
2021/01/12 02:30:42;;;;;;;28.13;13.68;;;;;;;5.75;100.00;100297.00;4987670;28;20439;-70
2021/01/12 02:33:08;;;;;;;20.88;12.23;;;;;;;5.81;100.00;100295.84;4988595;28;20036;-70
2021/01/12 02:35:36;;;;;;;25.00;13.25;;;;;;;5.79;100.00;100290.63;4987663;28;20402;-69
2021/01/12 02:38:03;;;;;;;22.92;12.38;;;;;;;5.83;100.00;100283.31;4989145;28;20384;-70
2021/01/12 02:40:29;;;;;;;19.67;11.43;;;;;;;5.84;100.00;100275.25;4988956;28;20042;-71
2021/01/12 02:42:54;;;;;;;20.63;11.00;;;;;;;5.92;100.00;100272.22;4987185;28;20074;-70
2021/01/12 02:45:20;;;;;;;25.60;11.50;;;;;;;5.84;100.00;100267.25;4987577;28;20069;-70
2021/01/12 02:47:46;;;;;;;21.67;10.93;;;;;;;5.90;100.00;100261.66;4989362;28;20062;-70
2021/01/12 02:50:15;;;;;;;17.52;11.23;;;;;;;5.90;100.00;100252.78;4988679;28;20378;-70
2021/01/12 02:52:46;;;;;;;16.40;10.27;;;;;;;5.97;100.00;100248.88;4989119;28;20045;-70
2021/01/12 02:55:13;;;;;;;20.27;10.77;;;;;;;5.91;100.00;100246.53;4985560;28;20439;-70
2021/01/12 02:57:39;;;;;;;22.13;10.93;;;;;;;5.94;100.00;100238.34;4988998;28;20100;-70
2021/01/12 03:00:10;;;;;;;19.17;11.02;;;;;;;5.92;100.00;100234.94;4988127;28;20061;-70
2021/01/12 03:02:36;;;;;;;19.88;11.43;;;;;;;5.95;100.00;100224.97;4988525;28;20045;-68
2021/01/12 03:05:04;;;;;;;19.20;10.60;;;;;;;5.94;100.00;100227.72;4983191;28;20034;-69
2021/01/12 03:07:29;;;;;;;17.77;10.68;;;;;;;6.03;100.00;100221.91;4986584;28;20066;-70
2021/01/12 03:09:54;;;;;;;17.20;10.15;;;;;;;6.00;100.00;100206.06;4988594;28;20557;-71
2021/01/12 03:12:20;;;;;;;15.93;9.77;;;;;;;5.96;100.00;100231.16;4986465;28;20030;-70
2021/01/12 03:14:45;;;;;;;18.83;9.70;;;;;;;5.96;100.00;100196.53;4985098;28;20041;-71
2021/01/12 03:17:13;;;;;;;15.98;9.85;;;;;;;6.01;100.00;100194.47;4986406;28;20552;-70
2021/01/12 03:19:38;;;;;;;15.70;9.25;;;;;;;6.00;100.00;100204.25;4986907;28;20046;-71
2021/01/12 03:22:04;;;;;;;17.38;9.95;;;;;;;6.01;100.00;100199.81;4988058;28;20042;-70
2021/01/12 03:24:30;;;;;;;17.42;9.90;;;;;;;6.04;100.00;100203.19;4982747;28;20041;-69
2021/01/12 03:26:55;;;;;;;14.70;8.25;;;;;;;6.07;100.00;100196.81;4986671;28;20033;-71
2021/01/12 03:29:21;;;;;;;15.90;8.95;;;;;;;6.11;100.00;100201.00;4988564;28;20066;-70
2021/01/12 03:31:46;;;;;;;15.15;8.38;;;;;;;6.08;100.00;100190.53;4987418;28;21744;-70
2021/01/12 03:34:13;;;;;;;13.93;8.43;;;;;;;6.12;100.00;100181.44;4988482;28;20029;-72
2021/01/12 03:36:38;;;;;;;16.55;8.32;;;;;;;6.14;100.00;100187.53;4984279;28;20368;-71
2021/01/12 03:39:06;;;;;;;15.25;7.63;;;;;;;6.12;100.00;100181.44;4988766;28;20044;-69
2021/01/12 03:41:34;;;;;;;12.80;7.93;;;;;;;6.11;100.00;100187.69;4986910;28;20042;-75
2021/01/12 03:44:00;;;;;;;12.82;7.97;;;;;;;6.12;100.00;100173.44;4970432;28;20049;-71
2021/01/12 03:46:27;;;;;;;13.38;7.47;;;;;;;6.19;100.00;100174.81;4987661;28;20042;-71
2021/01/12 03:48:54;;;;;;;17.67;7.72;;;;;;;6.24;100.00;100172.75;4987265;28;20115;-70
2021/01/12 03:51:20;;;;;;;12.85;8.00;;;;;;;6.24;100.00;100167.44;4987373;28;20046;-70
2021/01/12 03:53:45;;;;;;;18.08;9.82;;;;;;;6.15;100.00;100162.63;4969371;28;20058;-70
2021/01/12 03:56:13;;;;;;;17.20;10.77;;;;;;;6.16;100.00;100152.81;4981591;28;20100;-69
2021/01/12 03:58:40;;;;;;;14.13;6.88;;;;;;;6.24;100.00;100146.09;4986302;28;20043;-69
2021/01/12 04:01:05;;;;;;;11.98;6.90;;;;;;;6.24;100.00;100146.09;4988963;28;20053;-70
2021/01/12 04:03:31;;;;;;;12.23;7.15;;;;;;;6.26;100.00;100156.69;4988439;28;20502;-69
2021/01/12 04:06:01;;;;;;;9.98;6.53;;;;;;;6.28;100.00;100147.69;4987285;28;20038;-69
2021/01/12 04:08:26;;;;;;;10.90;6.80;;;;;;;6.28;100.00;100141.47;4984968;28;20078;-70
2021/01/12 04:10:52;;;;;;;10.02;6.85;;;;;;;6.29;100.00;100133.41;4988137;28;20692;-70
2021/01/12 04:13:17;;;;;;;12.23;6.28;;;;;;;6.28;100.00;100134.34;4971716;28;20038;-70
2021/01/12 04:15:43;;;;;;;10.57;6.70;;;;;;;6.24;100.00;100130.13;4973933;28;20181;-70
2021/01/12 04:18:08;;;;;;;11.82;7.28;;;;;;;6.29;100.00;100133.41;4990332;28;20046;-70
2021/01/12 04:20:34;;;;;;;9.55;6.13;;;;;;;6.36;100.00;100134.75;4983977;28;20034;-71
2021/01/12 04:22:59;;;;;;;9.27;5.90;;;;;;;6.34;100.00;100125.16;4990103;28;20137;-70
2021/01/12 04:25:24;;;;;;;10.07;6.43;;;;;;;6.33;100.00;100126.94;4988930;28;20027;-71
2021/01/12 04:27:50;;;;;;;10.40;6.45;;;;;;;6.42;100.00;100117.56;4990024;28;20042;-68
2021/01/12 04:30:16;;;;;;;9.77;5.90;;;;;;;6.30;100.00;100116.44;4990491;28;20041;-70
2021/01/12 04:32:41;;;;;;;10.43;6.18;;;;;;;6.37;100.00;100109.84;4990372;28;20038;-70
2021/01/12 04:35:07;;;;;;;9.70;5.68;;;;;;;6.44;100.00;100113.00;4990615;28;20073;-70
2021/01/12 04:37:32;;;;;;;8.90;5.57;;;;;;;6.43;100.00;100104.16;4978392;28;20106;-69
2021/01/12 04:39:58;;;;;;;7.63;5.20;;;;;;;6.45;100.00;100096.94;4991604;28;20086;-70
2021/01/12 04:42:31;;;;;;;7.25;4.70;;;;;;;6.50;100.00;100100.19;4989350;28;20125;-70
2021/01/12 04:44:57;;;;;;;7.72;4.90;;;;;;;6.55;100.00;100096.38;4986670;28;20653;-70
2021/01/12 04:47:23;;;;;;;7.97;5.30;;;;;;;6.49;100.00;100098.47;4990364;28;20109;-70
2021/01/12 04:49:48;;;;;;;6.20;4.78;;;;;;;6.49;100.00;100093.13;4990045;28;20581;-71
2021/01/12 04:52:13;;;;;;;6.95;4.72;;;;;;;6.52;100.00;100076.13;4990643;28;20084;-71
2021/01/12 04:54:39;;;;;;;7.53;4.70;;;;;;;6.53;100.00;100079.66;4991202;28;20045;-71
2021/01/12 04:57:04;;;;;;;8.23;4.15;;;;;;;6.56;100.00;100074.97;4987401;28;20035;-71
2021/01/12 04:59:31;;;;;;;6.50;4.22;;;;;;;6.55;100.00;100075.91;4991603;28;20038;-70
2021/01/12 05:01:57;;;;;;;7.85;4.47;;;;;;;6.56;100.00;100071.44;4990310;28;20077;-70
2021/01/12 05:04:23;;;;;;;6.80;4.45;;;;;;;6.56;100.00;100058.13;4988116;28;20502;-70
2021/01/12 05:06:48;;;;;;;6.07;3.92;;;;;;;6.63;100.00;100052.34;4989687;28;20088;-70
2021/01/12 05:09:23;;;;;;;6.30;4.22;;;;;;;6.64;100.00;100063.88;4990379;28;20473;-69
2021/01/12 05:11:52;;;;;;;6.53;4.07;;;;;;;6.71;100.00;100041.25;4987346;28;20042;-70
2021/01/12 05:14:22;;;;;;;5.57;3.88;;;;;;;6.73;100.00;100042.84;4982843;28;20034;-70
2021/01/12 05:16:49;;;;;;;5.57;4.30;;;;;;;6.69;100.00;100036.00;4990218;28;20034;-70
2021/01/12 05:19:22;;;;;;;5.28;3.90;;;;;;;6.64;100.00;100037.22;4991105;28;20034;-70
2021/01/12 05:21:49;;;;;;;6.60;3.83;;;;;;;6.65;100.00;100025.59;4989164;28;20062;-70
2021/01/12 05:24:20;;;;;;;6.07;3.63;;;;;;;6.65;100.00;100021.13;4988828;28;20035;-70
2021/01/12 05:26:46;;;;;;;4.72;3.42;;;;;;;6.70;100.00;100026.19;4989314;28;20476;-70
2021/01/12 05:29:11;;;;;;;5.10;3.90;;;;;;;6.72;100.00;100034.97;4990208;28;20418;-71
2021/01/12 05:31:37;;;;;;;5.93;4.22;;;;;;;6.73;100.00;100017.97;4988865;28;20038;-71
2021/01/12 05:34:07;;;;;;;5.40;3.53;;;;;;;6.77;100.00;100019.53;4988789;28;20360;-70
2021/01/12 05:36:45;;;;;;;4.78;3.47;;;;;;;6.86;100.00;100016.31;4988954;28;20453;-70
2021/01/12 05:39:16;;;;;;;6.57;3.63;;;;;;;6.80;100.00;100006.00;4989672;28;20441;-70
2021/01/12 05:41:44;;;;;;;4.57;3.58;;;;;;;6.81;100.00;100010.38;4988260;28;20050;-70
2021/01/12 05:44:17;;;;;;;5.70;3.28;;;;;;;6.87;100.00;99999.34;4988704;28;20033;-71
2021/01/12 05:46:44;;;;;;;4.78;3.50;;;;;;;6.80;100.00;100003.34;4989890;28;20030;-71
2021/01/12 05:49:10;;;;;;;5.18;3.60;;;;;;;6.89;100.00;100000.13;4989500;28;20034;-70
2021/01/12 05:51:44;;;;;;;5.13;3.28;;;;;;;6.80;100.00;99990.00;4988208;28;20502;-71
2021/01/12 05:54:19;;;;;;;4.10;3.10;;;;;;;6.83;100.00;99989.81;4984158;28;20098;-70
2021/01/12 05:56:48;;;;;;;4.05;2.95;;;;;;;6.94;100.00;99982.03;4988146;28;20053;-70
2021/01/12 05:59:16;;;;;;;6.50;3.20;;;;;;;6.90;100.00;99989.38;4988331;28;20065;-70
2021/01/12 06:01:44;;;;;;;4.50;2.55;;;;;;;6.89;100.00;99979.66;4990402;28;20088;-70
2021/01/12 06:04:11;;;;;;;4.35;2.80;;;;;;;6.89;100.00;99978.78;4989075;28;20414;-70
2021/01/12 06:06:38;;;;;;;3.50;2.20;;;;;;;6.90;100.00;99969.84;4989322;28;20077;-70
2021/01/12 06:09:08;;;;;;;3.13;2.50;;;;;;;6.97;100.00;99981.00;4984068;28;20037;-70
2021/01/12 06:11:35;;;;;;;3.55;2.70;;;;;;;6.91;100.00;99966.22;4985817;28;20053;-70
2021/01/12 06:14:07;;;;;;;4.13;3.15;;;;;;;6.95;100.00;99974.88;4985262;28;20117;-70
2021/01/12 06:16:35;;;;;;;5.10;2.97;;;;;;;6.99;100.00;99963.91;4986308;28;20088;-72
2021/01/12 06:19:17;;;;;;;5.10;3.40;;;;;;;6.98;100.00;99972.00;4981097;28;20053;-69
2021/01/12 06:21:55;;;;;;;3.57;2.50;;;;;;;6.99;100.00;99974.59;4983029;28;20034;-70
2021/01/12 06:24:33;;;;;;;3.95;2.70;;;;;;;6.98;100.00;99977.34;4983159;28;21991;-71
2021/01/12 06:26:59;;;;;;;5.25;3.50;;;;;;;6.95;100.00;99967.75;4968726;28;20435;-69
2021/01/12 06:29:28;;;;;;;6.05;3.50;;;;;;;6.99;100.00;99969.25;4990186;28;20057;-70
2021/01/12 06:31:54;;;;;;;4.43;2.85;;;;;;;6.97;100.00;99960.50;4983667;28;20133;-68
2021/01/12 06:34:21;;;;;;;6.00;2.83;;;;;;;7.02;100.00;99952.22;4985210;28;20142;-70
2021/01/12 06:36:52;;;;;;;4.35;3.08;;;;;;;7.02;100.00;99958.41;4984063;28;20502;-71
2021/01/12 06:39:21;;;;;;;4.65;3.10;;;;;;;7.01;100.00;99943.34;4985430;28;20574;-70
2021/01/12 06:41:48;;;;;;;5.03;3.03;;;;;;;7.02;100.00;99952.22;4983586;28;20046;-70
2021/01/12 06:44:25;;;;;;;9.35;2.95;;;;;;;6.99;100.00;99953.25;4984906;28;20112;-69
2021/01/12 06:46:55;;;;;;;4.25;2.88;;;;;;;7.07;100.00;99945.63;4984679;28;20045;-71
2021/01/12 06:49:23;;;;;;;5.32;2.63;;;;;;;7.00;100.00;99952.31;4982432;28;20069;-71
2021/01/12 06:52:11;;;;;;;3.88;2.70;;;;;;;7.07;100.00;99944.78;4985063;28;20038;-74
2021/01/12 06:54:43;;;;;;;5.38;2.92;;;;;;;7.11;100.00;99944.47;4985604;28;20042;-73
2021/01/12 06:57:10;;;;;;;4.75;2.90;;;;;;;7.16;100.00;99937.03;4983507;28;20038;-71
2021/01/12 06:59:37;;;;;;;4.78;2.95;;;;;;;7.11;100.00;99936.47;4986984;28;20065;-72
2021/01/12 07:02:18;;;;;;;8.27;3.42;;;;;;;7.09;100.00;99933.06;4982926;28;20037;-71
2021/01/12 07:05:04;;;;;;;2.67;2.20;;;;;;;7.17;100.00;99930.75;4986051;28;20030;-71
2021/01/12 07:07:32;;;;;;;2.55;1.92;;;;;;;7.13;100.00;99945.25;4983197;28;20034;-72
2021/01/12 07:10:01;;;;;;;8.02;2.17;;;;;;;7.17;100.00;99928.09;4984247;28;20051;-73
2021/01/12 07:12:28;;;;;;;3.53;2.30;;;;;;;7.16;100.00;99939.72;4982789;28;20042;-73
2021/01/12 07:15:01;;;;;;;4.60;2.50;;;;;;;7.15;100.00;99932.69;4987543;28;20687;-73
2021/01/12 07:17:32;;;;;;;4.57;2.25;;;;;;;7.15;100.00;99932.69;4985423;28;20383;-72
2021/01/12 07:20:04;;;;;;;5.70;2.22;;;;;;;7.23;100.00;99929.50;4985783;28;20038;-73
2021/01/12 07:22:41;;;;;;;2.58;2.00;;;;;;;7.22;100.00;99931.31;4985611;28;20061;-73
2021/01/12 07:25:09;;;;;;;5.13;2.03;;;;;;;7.27;100.00;99934.56;4986249;28;20530;-71
2021/01/12 07:27:36;;;;;;;3.75;2.00;;;;;;;7.27;100.00;99936.38;5000496;28;20053;-72
2021/01/12 07:30:05;;;;;;;2.05;1.50;;;;;;;7.24;100.00;99932.09;4986827;28;20042;-73
2021/01/12 07:32:37;;;;;;;2.78;1.70;;;;;;;7.23;100.00;99934.84;4986617;28;20606;-73
2021/01/12 07:35:09;;;;;;;10.10;2.40;;;;;;;7.29;100.00;99937.13;4984533;28;20507;-73
2021/01/12 07:37:37;;;;;;;5.83;1.90;;;;;;;7.37;100.00;99937.50;4986361;28;20049;-72
2021/01/12 07:40:04;;;;;;;4.13;1.92;;;;;;;7.32;100.00;99932.47;4989153;28;20030;-73
2021/01/12 07:42:29;;;;;;;3.45;2.10;;;;;;;7.40;100.00;99921.31;4979200;28;20557;-73
2021/01/12 07:45:02;;;;;;;6.43;2.90;;;;;;;7.32;100.00;99928.94;4987779;28;20142;-73
2021/01/12 07:47:28;;;;;;;5.90;2.22;;;;;;;7.38;100.00;99922.34;4988023;28;20042;-73
2021/01/12 07:49:53;;;;;;;4.07;2.30;;;;;;;7.32;100.00;99932.47;4990926;28;20039;-75
2021/01/12 07:52:23;;;;;;;4.15;2.30;;;;;;;7.41;100.00;99924.81;4992222;28;20038;-73
2021/01/12 07:54:48;;;;;;;5.25;2.63;;;;;;;7.38;100.00;99927.69;4991037;28;20046;-73
2021/01/12 07:57:15;;;;;;;3.50;2.15;;;;;;;7.42;100.00;99923.84;4991169;28;20128;-73
2021/01/12 07:59:42;;;;;;;8.90;2.45;;;;;;;7.48;100.00;99928.81;4987681;28;20129;-70
2021/01/12 08:02:08;;;;;;;8.98;3.03;;;;;;;7.46;100.00;99931.59;4987628;28;20145;-73
2021/01/12 08:04:34;;;;;;;6.13;3.00;;;;;;;7.45;100.00;99927.22;4992986;28;20570;-73
2021/01/12 08:07:00;;;;;;;7.57;3.50;;;;;;;7.46;100.00;99936.06;4988650;28;20034;-71
2021/01/12 08:09:27;;;;;;;4.85;3.00;;;;;;;7.40;100.00;99936.47;4988033;28;20110;-72
2021/01/12 08:12:02;;;;;;;7.65;3.40;;;;;;;7.50;100.00;99937.59;4986973;28;20465;-73
2021/01/12 08:14:28;;;;;;;6.55;4.03;;;;;;;7.44;100.00;99932.63;4989635;28;20042;-72
2021/01/12 08:16:54;;;;;;;7.63;3.50;;;;;;;7.55;100.00;99935.47;4988662;28;20631;-72
2021/01/12 08:19:25;;;;;;;6.80;3.45;;;;;;;7.48;100.00;99939.47;4991329;28;20042;-72
2021/01/12 08:21:52;;;;;;;5.93;3.60;;;;;;;7.50;100.00;99938.44;4990273;28;20136;-73
2021/01/12 08:24:26;;;;;;;4.10;2.80;;;;;;;7.60;100.00;99938.69;4992177;28;20078;-72
2021/01/12 08:26:52;;;;;;;9.70;4.20;;;;;;;7.59;100.00;99947.69;4982557;28;20034;-72
2021/01/12 08:29:25;;;;;;;6.82;3.30;;;;;;;7.63;100.00;99959.88;4990355;28;20045;-73
2021/01/12 08:32:02;;;;;;;;;;;;;;;7.69;100.00;99960.34;4991177;28;20498;-71
2021/01/12 08:34:30;;;;;;;6.25;3.22;;;;;;;7.63;100.00;99967.91;4990926;28;19948;-71
2021/01/12 08:36:58;;;;;;;7.00;3.45;;;;;;;7.70;100.00;99975.41;4989741;28;20065;-72
2021/01/12 08:39:25;;;;;;;6.65;4.35;;;;;;;7.70;100.00;99977.22;4989499;28;20118;-71
2021/01/12 08:41:53;;;;;;;8.65;5.47;;;;;;;7.71;100.00;99979.78;4990433;28;20045;-71
2021/01/12 08:44:21;;;;;;;9.98;5.70;;;;;;;7.69;100.00;99983.53;4993537;28;20089;-71
2021/01/12 08:46:47;;;;;;;8.73;5.82;;;;;;;7.67;100.00;99988.97;4976183;28;20026;-72
2021/01/12 08:49:12;;;;;;;11.50;6.18;;;;;;;7.73;100.00;99985.03;4975443;28;20152;-71
2021/01/12 08:51:40;;;;;;;12.05;6.82;;;;;;;7.74;100.00;99986.75;4973886;28;20049;-71
2021/01/12 08:54:07;;;;;;;12.75;7.05;;;;;;;7.74;100.00;99984.09;4978441;28;20042;-72
2021/01/12 08:56:32;;;;;;;14.95;7.88;;;;;;;7.70;100.00;99987.91;4990956;28;20035;-72
2021/01/12 08:59:06;;;;;;;12.60;7.20;;;;;;;7.82;100.00;99991.59;4985454;28;20038;-72
2021/01/12 09:01:33;;;;;;;12.38;6.43;;;;;;;7.76;100.00;99998.22;4990006;28;20509;-71
2021/01/12 09:04:06;;;;;;;13.07;5.82;;;;;;;7.77;100.00;100002.59;4991219;28;20117;-72
2021/01/12 09:06:33;;;;;;;8.18;5.78;;;;;;;7.85;100.00;100002.09;4989575;28;20038;-71
2021/01/12 09:09:09;;;;;;;15.40;4.65;;;;;;;7.91;100.00;100002.53;4989556;28;20034;-72
2021/01/12 09:11:53;;;;;;;5.93;3.88;;;;;;;7.80;100.00;100007.72;4987013;28;20045;-71
2021/01/12 09:14:21;;;;;;;7.53;3.22;;;;;;;7.84;100.00;100006.56;4987811;28;20336;-71
2021/01/12 09:16:47;;;;;;;6.05;2.88;;;;;;;7.87;100.00;100011.72;4988231;28;20520;-72
2021/01/12 09:19:15;;;;;;;6.18;2.95;;;;;;;7.84;100.00;100022.59;4990911;28;20066;-72
2021/01/12 09:21:40;;;;;;;6.57;3.35;;;;;;;7.94;100.00;100017.53;4988337;28;20034;-71
2021/01/12 09:24:08;;;;;;;12.05;4.57;;;;;;;7.86;100.00;100018.03;4990795;28;20077;-69
2021/01/12 09:26:35;;;;;;;7.15;3.55;;;;;;;7.91;100.00;100023.91;4987200;28;20042;-72
2021/01/12 09:29:01;;;;;;;8.88;3.50;;;;;;;7.87;100.00;100030.44;4971998;28;20030;-71
2021/01/12 09:31:26;;;;;;;7.88;3.95;;;;;;;7.90;100.00;100032.88;4988347;28;20077;-70
2021/01/12 09:33:53;;;;;;;7.18;4.10;;;;;;;7.95;100.00;100037.97;4988691;28;20419;-72
2021/01/12 09:36:23;;;;;;;10.43;4.35;;;;;;;7.93;100.00;100043.41;4985382;28;20100;-72
2021/01/12 09:38:50;;;;;;;8.75;4.28;;;;;;;7.98;100.00;100048.44;4988042;28;20035;-69
2021/01/12 09:41:21;;;;;;;9.73;4.93;;;;;;;7.94;100.00;100054.94;4988600;28;20529;-73
2021/01/12 09:43:46;;;;;;;8.75;3.83;;;;;;;7.91;100.00;100057.78;4989554;28;20129;-72
2021/01/12 09:46:12;;;;;;;5.00;3.05;;;;;;;7.92;100.00;100056.84;4988972;28;20125;-73
2021/01/12 09:48:38;;;;;;;8.32;2.53;;;;;;;7.83;100.00;100069.00;4989391;28;20090;-72
2021/01/12 09:51:05;;;;;;;7.68;2.78;;;;;;;7.81;100.00;100072.69;4988727;28;20034;-72
2021/01/12 09:53:30;;;;;;;5.15;2.28;;;;;;;7.68;100.00;100083.31;4988780;28;20491;-72
2021/01/12 09:55:56;;;;;;;3.53;2.20;;;;;;;7.69;100.00;100080.53;4987606;28;20045;-72
2021/01/12 09:58:22;;;;;;;7.05;2.40;;;;;;;7.69;100.00;100090.38;4988624;28;20038;-72
2021/01/12 10:00:47;;;;;;;4.82;2.22;;;;;;;7.69;100.00;100088.56;4990673;28;20034;-72
2021/01/12 10:03:13;;;;;;;6.20;2.22;;;;;;;7.71;100.00;100097.31;4991289;28;20031;-71
2021/01/12 10:05:39;;;;;;;8.13;3.20;;;;;;;7.67;100.00;100097.59;4989253;28;20545;-72
2021/01/12 10:08:05;;;;;;;5.25;2.85;;;;;;;7.63;100.00;100106.78;4989744;28;20407;-72
2021/01/12 10:10:31;;;;;;;6.13;2.88;;;;;;;7.68;100.00;100107.34;4989726;28;20038;-72
2021/01/12 10:12:57;;;;;;;4.85;3.10;;;;;;;7.65;100.00;100104.88;4972215;28;20100;-73
2021/01/12 10:15:23;;;;;;;13.43;3.33;;;;;;;7.78;100.00;100116.50;4989913;28;20033;-72
2021/01/12 10:17:48;;;;;;;6.60;3.75;;;;;;;7.75;100.00;100116.69;4988295;28;20453;-72
2021/01/12 10:20:14;;;;;;;9.90;4.20;;;;;;;7.79;100.00;100126.22;4979553;28;20042;-72
2021/01/12 10:22:39;;;;;;;10.35;4.43;;;;;;;7.83;100.00;100132.25;4989984;28;20038;-72
2021/01/12 10:25:05;;;;;;;11.27;4.40;;;;;;;7.78;100.00;100132.53;4987576;28;20108;-72
2021/01/12 10:27:36;;;;;;;10.82;4.20;;;;;;;7.81;100.00;100135.00;4989555;28;20026;-71
2021/01/12 10:30:03;;;;;;;13.05;4.55;;;;;;;7.80;100.00;100133.28;4984883;28;20050;-71
2021/01/12 10:32:28;;;;;;;10.07;4.07;;;;;;;7.77;100.00;100137.97;4987999;28;20453;-72
2021/01/12 10:34:54;;;;;;;10.60;3.92;;;;;;;7.81;100.00;100135.00;4982448;28;20073;-72
2021/01/12 10:37:19;;;;;;;12.32;4.40;;;;;;;7.87;100.00;100137.31;4989280;28;20056;-71
2021/01/12 10:39:45;;;;;;;14.85;3.88;;;;;;;7.91;100.00;100152.19;4984500;28;20034;-71
2021/01/12 10:42:17;;;;;;;11.70;4.40;;;;;;;7.90;100.00;100149.63;5107668;27;20694;-73
2021/01/12 10:44:42;;;;;;;9.68;4.55;;;;;;;7.91;100.00;100152.19;5087820;28;20047;-74
2021/01/12 10:47:07;;;;;;;9.13;4.68;;;;;;;7.90;100.00;100155.81;5092908;28;20043;-71
2021/01/12 10:49:33;;;;;;;13.15;5.18;;;;;;;7.82;100.00;100152.78;5097511;28;20089;-73
2021/01/12 10:52:04;;;;;;;11.35;4.57;;;;;;;7.81;100.00;100156.38;5096531;28;20107;-73
2021/01/12 10:54:30;;;;;;;8.20;4.55;;;;;;;7.81;100.00;100161.72;5090226;28;20176;-73
2021/01/12 10:56:56;;;;;;;8.90;4.63;;;;;;;7.79;100.00;100163.63;5095148;28;20107;-72
2021/01/12 10:59:22;;;;;;;9.40;4.68;;;;;;;7.77;100.00;100170.91;5092490;28;20039;-73
2021/01/12 11:01:58;;;;;;;8.90;4.60;;;;;;;7.71;100.00;100176.63;5096276;28;20024;-73
2021/01/12 11:04:24;;;;;;;12.73;4.28;;;;;;;7.70;100.00;100180.22;5097617;28;20036;-73
2021/01/12 11:06:54;;;;;;;10.52;4.45;;;;;;;7.73;100.00;100186.25;5096315;28;20427;-73
2021/01/12 11:09:20;;;;;;;8.23;3.97;;;;;;;7.68;100.00;100198.16;5098252;28;20557;-73
2021/01/12 11:11:47;;;;;;;7.13;3.78;;;;;;;7.70;100.00;100196.25;5086182;28;20115;-73
2021/01/12 11:14:14;;;;;;;6.80;3.28;;;;;;;7.72;100.00;100194.34;5084723;28;20072;-71
2021/01/12 11:16:39;;;;;;;6.72;3.63;;;;;;;7.68;100.00;100200.81;5083125;28;20454;-71
2021/01/12 11:19:07;;;;;;;6.20;3.33;;;;;;;7.70;100.00;100207.81;5098525;28;20033;-69
2021/01/12 11:21:42;;;;;;;7.57;2.65;;;;;;;7.62;100.00;100219.91;5085703;28;20028;-70
2021/01/12 11:24:12;;;;;;;3.10;2.05;;;;;;;7.56;100.00;100220.25;5075489;28;20044;-71